createdAt,value
2023-03-17T00:02:08.206Z,67.20
2023-03-17T00:04:36.175Z,66.80
2023-03-17T00:07:04.294Z,66.90
2023-03-17T00:09:33.799Z,66.80
2023-03-17T00:12:01.958Z,66.90
2023-03-17T00:14:29.999Z,66.90
2023-03-17T00:16:57.997Z,66.70
2023-03-17T00:19:32.255Z,66.90
2023-03-17T00:22:00.982Z,66.80
2023-03-17T00:24:29.453Z,66.60
2023-03-17T00:26:58.896Z,66.60
2023-03-17T00:29:26.959Z,66.40
2023-03-17T00:31:57.669Z,66.30
2023-03-17T00:34:25.701Z,66.40
2023-03-17T00:36:53.778Z,66.50
2023-03-17T00:39:25.349Z,66.40
2023-03-17T00:41:55.657Z,66.20
2023-03-17T00:44:25.451Z,66.10
2023-03-17T00:46:55.024Z,66.00
2023-03-17T00:49:25.061Z,66.20
2023-03-17T00:51:53.454Z,66.00
2023-03-17T00:54:22.895Z,66.50
2023-03-17T00:56:53.508Z,66.40
2023-03-17T00:59:28.042Z,66.40
2023-03-17T01:01:56.541Z,66.40
2023-03-17T01:04:24.739Z,66.40
2023-03-17T01:06:53.194Z,66.40
2023-03-17T01:09:23.138Z,66.40
2023-03-17T01:11:51.929Z,66.40
2023-03-17T01:14:19.966Z,66.40
2023-03-17T01:16:50.501Z,66.40
2023-03-17T01:19:19.024Z,66.40
2023-03-17T01:21:48.048Z,66.40
2023-03-17T01:24:16.046Z,66.40
2023-03-17T01:26:44.632Z,66.50
2023-03-17T01:29:12.764Z,66.60
2023-03-17T01:31:41.214Z,66.20
2023-03-17T01:34:12.514Z,66.40
2023-03-17T01:36:41.277Z,66.50
2023-03-17T01:39:09.351Z,66.50
2023-03-17T01:41:39.991Z,66.30
2023-03-17T01:44:15.657Z,66.30
2023-03-17T01:46:44.043Z,66.40
2023-03-17T01:49:21.062Z,66.30
2023-03-17T01:51:56.101Z,66.30
2023-03-17T01:54:29.931Z,66.40
2023-03-17T01:57:02.051Z,66.80
2023-03-17T01:59:34.755Z,66.40
2023-03-17T02:02:07.418Z,66.20
2023-03-17T02:04:38.625Z,66.40
2023-03-17T02:07:07.118Z,66.40
2023-03-17T02:09:35.668Z,66.30
2023-03-17T02:12:05.236Z,66.20
2023-03-17T02:14:34.095Z,66.20
2023-03-17T02:17:03.915Z,66.20
2023-03-17T02:19:31.957Z,66.10
2023-03-17T02:22:02.543Z,66.20
2023-03-17T02:24:34.242Z,66.00
2023-03-17T02:27:07.784Z,66.00
2023-03-17T02:29:37.835Z,66.10
2023-03-17T02:32:06.795Z,66.00
2023-03-17T02:34:37.350Z,65.90
2023-03-17T02:37:07.715Z,65.90
2023-03-17T02:39:36.218Z,66.00
2023-03-17T02:42:05.245Z,65.80
2023-03-17T02:44:35.193Z,65.80
2023-03-17T02:47:03.152Z,65.90
2023-03-17T02:49:32.505Z,65.90
2023-03-17T02:52:01.443Z,65.90
2023-03-17T02:54:30.814Z,66.10
2023-03-17T02:56:58.828Z,65.90
2023-03-17T02:59:26.950Z,65.90
2023-03-17T03:01:56.146Z,66.00
2023-03-17T03:04:26.033Z,65.80
2023-03-17T03:06:54.777Z,65.90
2023-03-17T03:09:24.228Z,66.80
2023-03-17T03:11:53.612Z,66.50
2023-03-17T03:14:21.609Z,66.50
2023-03-17T03:16:49.748Z,66.80
2023-03-17T03:19:18.568Z,67.30
2023-03-17T03:21:47.132Z,66.80
2023-03-17T03:24:15.101Z,66.80
2023-03-17T03:26:43.078Z,66.60
2023-03-17T03:29:12.510Z,66.50
2023-03-17T03:31:40.577Z,66.50
2023-03-17T03:34:08.589Z,66.30
2023-03-17T03:36:36.955Z,66.50
2023-03-17T03:39:05.127Z,66.50
2023-03-17T03:41:33.238Z,66.50
2023-03-17T03:44:01.556Z,66.50
2023-03-17T03:46:31.285Z,66.70
2023-03-17T03:48:59.321Z,66.70
2023-03-17T03:51:27.478Z,66.70
2023-03-17T03:53:55.568Z,66.50
2023-03-17T03:56:23.646Z,66.50
2023-03-17T03:58:51.749Z,66.70
2023-03-17T04:01:19.894Z,66.40
2023-03-17T04:03:49.305Z,66.50
2023-03-17T04:06:17.294Z,66.50
2023-03-17T04:08:45.795Z,66.50
2023-03-17T04:11:13.804Z,66.50
2023-03-17T04:13:41.968Z,66.30
2023-03-17T04:16:10.047Z,66.30
2023-03-17T04:18:38.059Z,66.20
2023-03-17T04:21:08.272Z,66.30
2023-03-17T04:23:36.454Z,66.30
2023-03-17T04:26:05.000Z,66.30
2023-03-17T04:28:32.978Z,66.30
2023-03-17T04:31:01.475Z,66.20
2023-03-17T04:33:29.482Z,66.40
2023-03-17T04:35:58.512Z,66.10
2023-03-17T04:38:28.009Z,66.30
2023-03-17T04:40:56.084Z,66.30
2023-03-17T04:43:24.420Z,66.40
2023-03-17T04:45:54.526Z,66.10
2023-03-17T04:48:22.575Z,66.30
2023-03-17T04:50:51.349Z,66.30
2023-03-17T04:53:19.482Z,66.30
2023-03-17T04:55:48.789Z,66.40
2023-03-17T04:58:29.918Z,66.20
2023-03-17T05:00:59.297Z,66.20
2023-03-17T05:03:28.553Z,66.10
2023-03-17T05:05:57.490Z,66.00
2023-03-17T05:08:26.343Z,66.30
2023-03-17T05:10:55.948Z,66.40
2023-03-17T05:13:24.323Z,66.50
2023-03-17T05:15:54.482Z,66.70
2023-03-17T05:18:24.954Z,66.40
2023-03-17T05:20:53.581Z,66.40
2023-03-17T05:23:22.183Z,66.40
2023-03-17T05:25:50.505Z,66.40
2023-03-17T05:28:20.854Z,66.30
2023-03-17T05:30:49.396Z,66.10
2023-03-17T05:33:18.344Z,66.20
2023-03-17T05:35:46.594Z,66.10
2023-03-17T05:38:15.887Z,66.00
2023-03-17T05:40:44.297Z,65.90
2023-03-17T05:43:12.708Z,66.00
2023-03-17T05:45:42.316Z,65.90
2023-03-17T05:48:12.304Z,66.10
2023-03-17T05:50:41.574Z,66.50
2023-03-17T05:53:10.531Z,66.30
2023-03-17T05:55:38.511Z,65.90
2023-03-17T05:58:06.603Z,66.10
2023-03-17T06:00:35.117Z,66.20
2023-03-17T06:03:04.718Z,66.20
2023-03-17T06:05:32.644Z,66.00
2023-03-17T06:08:00.676Z,66.10
2023-03-17T06:10:29.697Z,66.10
2023-03-17T06:12:58.875Z,66.20
2023-03-17T06:15:27.679Z,66.20
2023-03-17T06:17:55.940Z,66.40
2023-03-17T06:20:25.269Z,66.20
2023-03-17T06:23:03.873Z,66.00
2023-03-17T06:25:34.271Z,66.20
2023-03-17T06:28:03.658Z,66.20
2023-03-17T06:30:32.880Z,66.30
2023-03-17T06:33:01.390Z,66.30
2023-03-17T06:35:32.083Z,66.20
2023-03-17T06:38:01.123Z,66.20
2023-03-17T06:40:29.373Z,66.10
2023-03-17T06:42:57.559Z,66.10
2023-03-17T06:45:25.971Z,65.90
2023-03-17T06:47:54.081Z,65.80
2023-03-17T06:50:22.229Z,65.90
2023-03-17T06:52:51.744Z,65.80
2023-03-17T06:55:20.122Z,65.80
2023-03-17T06:57:50.884Z,65.70
2023-03-17T07:00:20.842Z,65.70
2023-03-17T07:02:49.410Z,65.60
2023-03-17T07:05:17.890Z,65.70
2023-03-17T07:07:46.095Z,65.50
2023-03-17T07:10:15.818Z,65.50
2023-03-17T07:12:43.880Z,65.40
2023-03-17T07:15:13.437Z,65.10
2023-03-17T07:17:41.499Z,64.90
2023-03-17T07:20:10.818Z,64.90
2023-03-17T07:22:38.875Z,64.90
2023-03-17T07:25:07.884Z,64.90
2023-03-17T07:27:37.683Z,64.80
2023-03-17T07:30:07.422Z,64.80
2023-03-17T07:32:35.506Z,64.70
2023-03-17T07:35:04.876Z,64.50
2023-03-17T07:37:32.963Z,64.60
2023-03-17T07:40:01.067Z,64.60
2023-03-17T07:42:29.984Z,64.50
2023-03-17T07:44:59.742Z,64.40
2023-03-17T07:47:27.847Z,64.40
2023-03-17T07:49:55.933Z,64.10
2023-03-17T07:52:24.011Z,64.40
2023-03-17T07:54:53.034Z,64.40
2023-03-17T07:57:22.184Z,64.20
2023-03-17T07:59:50.523Z,64.20
2023-03-17T08:02:21.134Z,64.00
2023-03-17T08:04:50.132Z,63.90
2023-03-17T08:07:18.367Z,64.10
2023-03-17T08:09:46.513Z,63.80
2023-03-17T08:12:15.085Z,63.80
2023-03-17T08:14:43.072Z,63.80
2023-03-17T08:17:11.362Z,63.90
2023-03-17T08:19:41.069Z,63.80
2023-03-17T08:22:09.585Z,64.20
2023-03-17T08:24:39.697Z,63.90
2023-03-17T08:27:07.789Z,64.50
2023-03-17T08:29:35.960Z,64.70
2023-03-17T08:32:04.839Z,64.50
2023-03-17T08:34:33.216Z,64.10
2023-03-17T08:37:02.752Z,63.60
2023-03-17T08:39:31.717Z,63.60
2023-03-17T08:41:59.936Z,63.60
2023-03-17T08:44:28.099Z,63.60
2023-03-17T08:46:56.361Z,63.70
2023-03-17T08:49:24.719Z,63.60
2023-03-17T08:51:53.315Z,64.00
2023-03-17T08:54:23.020Z,63.80
2023-03-17T08:56:51.322Z,63.80
2023-03-17T08:59:19.682Z,63.90
2023-03-17T09:01:47.824Z,63.70
2023-03-17T09:04:16.854Z,63.60
2023-03-17T09:07:01.904Z,63.40
2023-03-17T09:09:33.512Z,64.10
2023-03-17T09:12:02.282Z,63.80
2023-03-17T09:14:35.273Z,63.30
2023-03-17T09:17:11.166Z,63.30
2023-03-17T09:19:40.489Z,64.00
2023-03-17T09:22:08.866Z,63.50
2023-03-17T09:24:38.224Z,63.20
2023-03-17T09:27:06.426Z,63.00
2023-03-17T09:29:34.732Z,62.90
2023-03-17T09:32:02.872Z,63.20
2023-03-17T09:34:31.391Z,63.00
2023-03-17T09:36:59.942Z,63.00
2023-03-17T09:39:28.055Z,63.10
2023-03-17T09:42:09.609Z,62.90
2023-03-17T09:45:02.804Z,63.10
2023-03-17T09:48:09.850Z,63.10
2023-03-17T09:50:45.372Z,62.90
2023-03-17T09:53:20.694Z,62.80
2023-03-17T09:55:52.629Z,64.50
2023-03-17T09:58:30.453Z,63.50
2023-03-17T10:00:59.673Z,63.60
2023-03-17T10:03:28.135Z,64.30
2023-03-17T10:06:05.119Z,63.80
2023-03-17T10:08:36.456Z,63.40
2023-03-17T10:11:13.366Z,63.30
2023-03-17T10:13:54.833Z,62.90
2023-03-17T10:16:28.459Z,62.80
2023-03-17T10:19:00.125Z,64.00
2023-03-17T10:21:31.262Z,63.50
2023-03-17T10:23:59.558Z,63.80
2023-03-17T10:26:33.343Z,63.60
2023-03-17T10:29:04.757Z,63.10
2023-03-17T10:31:35.355Z,62.30
2023-03-17T10:34:14.684Z,64.10
2023-03-17T10:36:45.724Z,62.30
2023-03-17T10:39:16.040Z,62.00
2023-03-17T10:41:53.544Z,62.10
2023-03-17T10:44:40.818Z,62.00
2023-03-17T10:47:25.130Z,61.50
2023-03-17T10:49:53.504Z,61.60
2023-03-17T10:52:27.408Z,61.30
2023-03-17T10:54:55.924Z,61.40
2023-03-17T10:57:23.969Z,61.90
2023-03-17T10:59:56.407Z,61.70
2023-03-17T11:02:30.499Z,61.60
2023-03-17T11:05:06.811Z,62.70
2023-03-17T11:07:39.483Z,61.30
2023-03-17T11:10:18.529Z,61.90
2023-03-17T11:12:50.111Z,62.60
2023-03-17T11:15:20.359Z,62.40
2023-03-17T11:17:55.883Z,62.10
2023-03-17T11:20:56.856Z,63.10
2023-03-17T11:23:41.822Z,63.80
2023-03-17T11:26:18.967Z,61.60
2023-03-17T11:28:51.650Z,62.10
2023-03-17T11:31:29.175Z,64.00
2023-03-17T11:34:05.768Z,62.70
2023-03-17T11:36:44.983Z,62.00
2023-03-17T11:39:17.285Z,63.00
2023-03-17T11:41:54.841Z,63.10
2023-03-17T11:44:55.626Z,63.20
2023-03-17T11:47:39.600Z,63.70
2023-03-17T11:50:19.127Z,63.00
2023-03-17T11:53:00.057Z,62.90
2023-03-17T11:55:35.354Z,62.30
2023-03-17T11:58:09.413Z,63.10
2023-03-17T12:00:42.703Z,62.40
2023-03-17T12:03:18.748Z,61.50
2023-03-17T12:05:50.171Z,61.90
2023-03-17T12:08:25.413Z,61.20
2023-03-17T12:10:55.784Z,61.40
2023-03-17T12:13:26.444Z,61.00
2023-03-17T12:16:01.699Z,60.90
2023-03-17T12:18:35.058Z,62.30
2023-03-17T12:21:08.148Z,62.10
2023-03-17T12:23:42.134Z,60.90
2023-03-17T12:26:14.584Z,61.30
2023-03-17T12:28:48.085Z,61.60
2023-03-17T12:31:21.465Z,60.80
2023-03-17T12:33:59.912Z,61.30
2023-03-17T12:36:28.289Z,60.80
2023-03-17T12:39:02.218Z,60.30
2023-03-17T12:41:43.852Z,59.60
2023-03-17T12:44:27.116Z,60.00
2023-03-17T12:47:24.975Z,59.50
2023-03-17T12:50:21.446Z,59.10
2023-03-17T12:52:59.623Z,60.10
2023-03-17T12:55:32.274Z,59.80
2023-03-17T12:58:03.423Z,58.90
2023-03-17T13:00:33.312Z,58.90
2023-03-17T13:03:19.993Z,58.90
2023-03-17T13:05:52.816Z,59.40
2023-03-17T13:08:28.258Z,58.70
2023-03-17T13:11:27.191Z,58.70
2023-03-17T13:14:14.520Z,58.20
2023-03-17T13:16:46.806Z,59.30
2023-03-17T13:19:21.512Z,59.30
2023-03-17T13:22:35.301Z,59.60
2023-03-17T13:25:17.161Z,58.90
2023-03-17T13:27:46.476Z,59.40
2023-03-17T13:30:46.057Z,59.20
2023-03-17T13:33:23.446Z,59.70
2023-03-17T13:36:17.399Z,58.80
2023-03-17T13:39:18.885Z,59.20
2023-03-17T13:42:12.005Z,58.70
2023-03-17T13:45:11.273Z,58.80
2023-03-17T13:47:42.191Z,59.30
2023-03-17T13:50:15.841Z,58.30
2023-03-17T13:52:49.008Z,58.70
2023-03-17T13:56:05.065Z,58.90
2023-03-17T13:58:35.246Z,58.90
2023-03-17T14:01:11.179Z,58.10
2023-03-17T14:03:43.584Z,57.90
2023-03-17T14:06:14.344Z,57.70
2023-03-17T14:08:47.680Z,58.60
2023-03-17T14:11:26.729Z,59.70
2023-03-17T14:14:09.876Z,58.50
2023-03-17T14:16:45.473Z,58.00
2023-03-17T14:19:21.397Z,59.70
2023-03-17T14:21:50.110Z,59.60
2023-03-17T14:24:24.182Z,60.10
2023-03-17T14:26:54.044Z,58.60
2023-03-17T14:29:26.206Z,58.80
2023-03-17T14:32:04.060Z,58.80
2023-03-17T14:34:32.321Z,59.50
2023-03-17T14:37:02.604Z,59.30
2023-03-17T14:39:31.160Z,58.50
2023-03-17T14:42:02.292Z,58.10
2023-03-17T14:44:38.053Z,57.90
2023-03-17T14:47:12.982Z,57.60
2023-03-17T14:49:41.348Z,57.70
2023-03-17T14:52:22.000Z,57.80
2023-03-17T14:54:53.475Z,58.10
2023-03-17T14:57:29.055Z,58.40
2023-03-17T14:59:57.749Z,57.40
2023-03-17T15:02:32.142Z,58.40
2023-03-17T15:05:03.315Z,58.40
2023-03-17T15:07:36.936Z,58.30
2023-03-17T15:10:06.736Z,58.00
2023-03-17T15:12:36.278Z,58.00
2023-03-17T15:15:07.671Z,58.10
2023-03-17T15:17:37.927Z,58.20
2023-03-17T15:20:13.436Z,57.80
2023-03-17T15:22:43.724Z,58.30
2023-03-17T15:25:25.704Z,57.40
2023-03-17T15:27:56.861Z,57.60
2023-03-17T15:30:27.478Z,57.50
2023-03-17T15:33:00.872Z,57.00
2023-03-17T15:35:29.751Z,57.40
2023-03-17T15:37:57.859Z,57.40
2023-03-17T15:40:25.875Z,57.40
2023-03-17T15:42:53.913Z,57.30
2023-03-17T15:45:23.241Z,57.30
2023-03-17T15:47:51.566Z,56.70
2023-03-17T15:50:24.892Z,57.50
2023-03-17T15:52:55.824Z,57.60
2023-03-17T15:55:26.045Z,57.60
2023-03-17T15:57:55.522Z,57.90
2023-03-17T16:00:29.519Z,58.00
2023-03-17T16:03:02.066Z,58.00
2023-03-17T16:05:32.062Z,57.70
2023-03-17T16:08:00.592Z,57.60
2023-03-17T16:10:30.574Z,57.70
2023-03-17T16:12:59.472Z,58.00
2023-03-17T16:15:31.876Z,57.80
2023-03-17T16:18:02.434Z,57.60
2023-03-17T16:20:37.222Z,58.20
2023-03-17T16:23:08.887Z,57.90
2023-03-17T16:25:38.481Z,58.20
2023-03-17T16:28:16.198Z,58.10
2023-03-17T16:30:47.343Z,58.20
2023-03-17T16:33:18.728Z,58.00
2023-03-17T16:35:48.576Z,57.70
2023-03-17T16:38:18.627Z,57.80
2023-03-17T16:40:48.470Z,57.80
2023-03-17T16:43:25.516Z,57.80
2023-03-17T16:45:57.083Z,57.80
2023-03-17T16:48:25.713Z,58.40
2023-03-17T16:50:53.980Z,59.00
2023-03-17T16:53:22.670Z,59.40
2023-03-17T16:55:52.274Z,59.10
2023-03-17T16:58:22.278Z,58.90
2023-03-17T17:00:52.469Z,59.50
2023-03-17T17:03:21.925Z,60.00
2023-03-17T17:05:50.003Z,60.00
2023-03-17T17:08:18.073Z,59.60
2023-03-17T17:10:46.248Z,59.50
2023-03-17T17:13:14.556Z,60.20
2023-03-17T17:15:43.466Z,59.70
2023-03-17T17:18:15.500Z,59.70
2023-03-17T17:20:46.033Z,59.90
2023-03-17T17:23:16.418Z,60.00
2023-03-17T17:25:44.838Z,60.30
2023-03-17T17:28:14.328Z,60.80
2023-03-17T17:30:45.022Z,62.90
2023-03-17T17:33:13.697Z,62.60
2023-03-17T17:35:42.121Z,62.30
2023-03-17T17:38:19.058Z,63.20
2023-03-17T17:40:47.231Z,63.90
2023-03-17T17:43:18.010Z,64.00
2023-03-17T17:45:48.599Z,64.30
2023-03-17T17:48:17.636Z,64.10
2023-03-17T17:50:46.184Z,64.00
2023-03-17T17:53:15.613Z,64.30
2023-03-17T17:55:45.120Z,64.60
2023-03-17T17:58:14.439Z,64.10
2023-03-17T18:00:42.935Z,64.00
2023-03-17T18:03:11.358Z,64.00
2023-03-17T18:05:39.701Z,64.10
2023-03-17T18:08:08.120Z,64.20
2023-03-17T18:10:37.618Z,64.30
2023-03-17T18:13:06.224Z,64.20
2023-03-17T18:15:34.699Z,64.20
2023-03-17T18:18:02.692Z,64.20
2023-03-17T18:20:31.348Z,64.30
2023-03-17T18:22:59.607Z,64.20
2023-03-17T18:25:27.633Z,64.40
2023-03-17T18:27:57.562Z,64.00
2023-03-17T18:30:27.770Z,63.80
2023-03-17T18:32:57.905Z,63.60
2023-03-17T18:35:28.073Z,63.80
2023-03-17T18:37:57.219Z,63.90
2023-03-17T18:40:25.322Z,64.10
2023-03-17T18:42:53.514Z,64.20
2023-03-17T18:45:23.108Z,64.40
2023-03-17T18:47:51.174Z,64.40
2023-03-17T18:50:19.577Z,65.40
2023-03-17T18:52:47.637Z,64.70
2023-03-17T18:55:17.138Z,64.30
2023-03-17T18:57:46.281Z,64.30
2023-03-17T19:00:16.409Z,64.20
2023-03-17T19:02:46.187Z,64.40
2023-03-17T19:05:15.308Z,64.50
2023-03-17T19:07:45.870Z,64.90
2023-03-17T19:10:15.051Z,65.10
2023-03-17T19:12:45.256Z,65.80
2023-03-17T19:15:14.491Z,65.30
2023-03-17T19:17:42.953Z,65.90
2023-03-17T19:20:14.956Z,65.10
2023-03-17T19:22:43.084Z,65.00
2023-03-17T19:25:11.998Z,66.40
2023-03-17T19:27:40.067Z,65.30
2023-03-17T19:30:09.334Z,65.40
2023-03-17T19:32:37.432Z,65.20
2023-03-17T19:35:07.415Z,65.70
2023-03-17T19:37:38.081Z,65.00
2023-03-17T19:40:09.467Z,64.90
2023-03-17T19:42:38.057Z,65.20
2023-03-17T19:45:07.007Z,64.90
2023-03-17T19:47:35.048Z,65.30
2023-03-17T19:50:03.153Z,65.50
2023-03-17T19:52:31.338Z,65.50
2023-03-17T19:55:00.630Z,65.60
2023-03-17T19:57:29.034Z,65.60
2023-03-17T19:59:57.355Z,65.60
2023-03-17T20:02:25.566Z,65.90
2023-03-17T20:04:53.793Z,66.00
2023-03-17T20:07:21.897Z,65.80
2023-03-17T20:09:49.967Z,66.00
2023-03-17T20:12:19.404Z,66.30
2023-03-17T20:14:48.866Z,66.20
2023-03-17T20:17:17.315Z,66.40
2023-03-17T20:19:45.531Z,66.40
2023-03-17T20:22:13.549Z,66.60
2023-03-17T20:24:42.394Z,66.60
2023-03-17T20:27:11.326Z,66.40
2023-03-17T20:29:40.929Z,66.40
2023-03-17T20:32:09.157Z,66.30
2023-03-17T20:34:37.189Z,66.50
2023-03-17T20:37:05.297Z,66.60
2023-03-17T20:39:33.378Z,66.70
2023-03-17T20:42:02.226Z,67.10
2023-03-17T20:44:30.313Z,67.00
2023-03-17T20:46:59.649Z,67.50
2023-03-17T20:49:27.691Z,67.70
2023-03-17T20:51:56.067Z,67.90
2023-03-17T20:54:24.255Z,67.50
2023-03-17T20:56:55.846Z,67.40
2023-03-17T20:59:24.631Z,67.50
2023-03-17T21:01:52.691Z,67.80
2023-03-17T21:04:22.205Z,68.60
2023-03-17T21:06:50.159Z,71.00
2023-03-17T21:09:18.066Z,70.90
2023-03-17T21:11:46.497Z,73.00
2023-03-17T21:14:14.653Z,73.90
2023-03-17T21:16:44.823Z,74.30
2023-03-17T21:19:15.273Z,75.60
2023-03-17T21:21:44.704Z,75.60
2023-03-17T21:24:26.680Z,76.20
2023-03-17T21:26:54.682Z,76.50
2023-03-17T21:29:22.739Z,76.80
2023-03-17T21:31:50.933Z,77.10
2023-03-17T21:34:19.012Z,77.30
2023-03-17T21:36:48.406Z,77.50
2023-03-17T21:39:16.681Z,78.10
2023-03-17T21:41:46.143Z,78.10
2023-03-17T21:44:15.913Z,78.80
2023-03-17T21:46:44.016Z,79.20
2023-03-17T21:49:13.170Z,79.30
2023-03-17T21:51:41.234Z,79.80
2023-03-17T21:54:11.016Z,79.50
2023-03-17T21:56:39.609Z,79.60
2023-03-17T21:59:10.778Z,79.70
2023-03-17T22:01:38.961Z,79.90
2023-03-17T22:04:09.126Z,79.90
2023-03-17T22:06:37.208Z,80.20
2023-03-17T22:09:06.322Z,80.70
2023-03-17T22:11:35.684Z,80.30
2023-03-17T22:14:03.666Z,80.40
2023-03-17T22:16:31.879Z,80.60
2023-03-17T22:18:59.962Z,80.60
2023-03-17T22:21:28.959Z,80.60
2023-03-17T22:23:57.591Z,80.60
2023-03-17T22:26:25.806Z,80.70
2023-03-17T22:28:55.261Z,80.70
2023-03-17T22:31:24.935Z,80.90
2023-03-17T22:33:55.172Z,80.90
2023-03-17T22:36:23.849Z,80.90
2023-03-17T22:38:52.060Z,81.20
2023-03-17T22:41:22.176Z,81.70
2023-03-17T22:43:50.659Z,81.80
2023-03-17T22:46:20.650Z,82.00
2023-03-17T22:48:48.816Z,82.10
2023-03-17T22:51:19.555Z,82.50
2023-03-17T22:53:47.988Z,82.70
2023-03-17T22:56:17.671Z,82.90
2023-03-17T22:58:47.009Z,83.00
2023-03-17T23:01:16.777Z,83.10
2023-03-17T23:03:47.001Z,83.00
2023-03-17T23:06:16.112Z,83.10
2023-03-17T23:08:45.878Z,83.70
2023-03-17T23:11:16.098Z,84.20
2023-03-17T23:13:45.230Z,84.30
2023-03-17T23:16:14.604Z,84.40
2023-03-17T23:18:46.431Z,84.60
2023-03-17T23:21:21.926Z,84.50
2023-03-17T23:23:50.512Z,84.70
2023-03-17T23:26:18.718Z,84.70
2023-03-17T23:28:47.556Z,84.80
2023-03-17T23:31:16.777Z,85.10
2023-03-17T23:33:44.908Z,85.10
2023-03-17T23:36:14.124Z,85.20
2023-03-17T23:38:44.400Z,85.40
2023-03-17T23:41:14.551Z,85.40
2023-03-17T23:43:43.938Z,85.70
2023-03-17T23:46:12.996Z,85.70
2023-03-17T23:48:42.875Z,85.30
2023-03-17T23:51:12.382Z,85.20
2023-03-17T23:53:41.622Z,85.00
2023-03-17T23:56:13.214Z,85.20
2023-03-17T23:58:43.317Z,84.90
